Time;durP1;ratioP1;P1;durP2;ratioP2;P2;SDS_P1;SDS_P2;PMS_P1;PMS_P2;Temp;Humidity;BMP_temperature;BMP_pressure;BME280_temperature;BME280_humidity;BME280_pressure;Samples;Min_cycle;Max_cycle;Signal;HPM_P1;HPM_P2
2021/12/03 00:00:15;;;;;;;18.53;16.73;;;;;;;2.03;81.57;97742.88;2088001;28;20768;-83
2021/12/03 00:01:18;;;;;;;20.60;18.15;;;;;;;1.98;82.45;97741.03;2088709;28;20223;-83
2021/12/03 00:02:21;;;;;;;18.73;16.98;;;;;;;1.92;83.50;97738.75;2096052;28;20229;-83
2021/12/03 00:03:22;;;;;;;18.48;16.48;;;;;;;1.95;83.21;97741.59;2103373;28;20364;-78
2021/12/03 00:04:23;;;;;;;20.20;17.37;;;;;;;1.98;83.43;97745.53;2104540;28;20232;-83
2021/12/03 00:05:24;;;;;;;18.75;16.75;;;;;;;1.93;84.21;97750.81;2095935;28;20230;-83
2021/12/03 00:06:26;;;;;;;19.43;16.50;;;;;;;1.87;84.96;97752.69;2087631;28;20284;-84
2021/12/03 00:07:27;;;;;;;20.95;17.40;;;;;;;1.82;85.77;97751.91;2096243;28;20716;-81
2021/12/03 00:08:30;;;;;;;19.87;16.73;;;;;;;1.82;86.36;97747.44;2087766;28;20618;-85
2021/12/03 00:09:35;;;;;;;18.92;16.85;;;;;;;1.83;86.62;97756.16;2087731;28;20681;-86
2021/12/03 00:10:38;;;;;;;19.65;16.73;;;;;;;1.85;87.35;97746.91;2096541;28;20218;-84
2021/12/03 00:11:40;;;;;;;18.83;17.02;;;;;;;1.91;87.05;97763.44;2095295;28;20229;-84
2021/12/03 00:12:41;;;;;;;18.48;16.70;;;;;;;1.95;83.88;97762.63;2087213;28;20283;-84
2021/12/03 00:13:45;;;;;;;18.83;17.00;;;;;;;1.94;82.84;97770.81;2087951;28;20227;-84
2021/12/03 00:14:47;;;;;;;18.63;16.95;;;;;;;1.87;83.38;97762.41;2088140;28;20223;-85
2021/12/03 00:15:49;;;;;;;18.37;16.77;;;;;;;1.82;84.96;97757.97;2087385;28;20284;-85
2021/12/03 00:16:50;;;;;;;18.95;17.27;;;;;;;1.90;84.66;97767.91;2088130;28;20468;-84
2021/12/03 00:17:52;;;;;;;19.20;17.03;;;;;;;1.88;83.82;97771.88;2096251;28;20214;-84
2021/12/03 00:18:54;;;;;;;18.15;16.45;;;;;;;1.86;84.33;97766.13;2096310;28;20221;-84
2021/12/03 00:19:55;;;;;;;18.58;16.77;;;;;;;1.92;83.62;97762.41;2095695;28;20225;-84
2021/12/03 00:21:00;;;;;;;19.47;17.37;;;;;;;1.90;83.52;97767.13;2087230;28;20227;-84
2021/12/03 00:22:02;;;;;;;18.40;16.55;;;;;;;1.89;83.91;97776.09;2096644;28;20222;-85
2021/12/03 00:23:05;;;;;;;17.42;15.82;;;;;;;1.90;82.95;97785.53;2104538;28;20217;-85
2021/12/03 00:24:07;;;;;;;18.23;16.33;;;;;;;1.83;82.71;97787.69;2104603;28;20221;-85
2021/12/03 00:25:09;;;;;;;18.30;16.55;;;;;;;1.74;83.23;97776.16;2087646;28;20688;-84
2021/12/03 00:26:11;;;;;;;17.73;15.95;;;;;;;1.74;82.78;97781.41;2087924;28;20238;-84
2021/12/03 00:27:12;;;;;;;20.65;16.35;;;;;;;1.90;82.37;97793.44;2095844;28;20222;-84
2021/12/03 00:28:17;;;;;;;18.23;16.53;;;;;;;1.80;83.07;97789.00;2104230;28;20220;-84
2021/12/03 00:29:18;;;;;;;20.42;17.30;;;;;;;1.73;83.63;97795.63;2103912;28;20229;-84
2021/12/03 00:30:20;;;;;;;19.00;17.00;;;;;;;1.73;84.64;97800.88;2086946;28;20219;-84
2021/12/03 00:31:21;;;;;;;18.90;16.77;;;;;;;1.69;84.76;97796.16;2087903;28;20234;-84
2021/12/03 00:32:23;;;;;;;18.33;16.53;;;;;;;1.66;83.86;97804.59;2095788;28;20305;-81
2021/12/03 00:33:25;;;;;;;18.67;16.77;;;;;;;1.62;83.53;97800.91;2095903;28;20560;-83
2021/12/03 00:34:27;;;;;;;17.92;16.23;;;;;;;1.65;83.47;97813.53;2096058;28;20229;-85
2021/12/03 00:35:31;;;;;;;18.17;16.35;;;;;;;1.61;83.21;97801.97;2095348;28;20226;-84
2021/12/03 00:36:34;;;;;;;18.48;16.45;;;;;;;1.57;83.32;97798.31;2096035;28;20233;-84
2021/12/03 00:37:35;;;;;;;17.95;16.35;;;;;;;1.60;83.20;97797.78;2095811;28;20238;-84
2021/12/03 00:38:40;;;;;;;18.25;16.55;;;;;;;1.61;83.61;97796.72;2095986;28;20229;-84
2021/12/03 00:39:42;;;;;;;17.88;16.38;;;;;;;1.62;83.43;97800.13;2103410;28;20243;-84
2021/12/03 00:40:44;;;;;;;19.65;17.10;;;;;;;1.57;83.25;97800.94;2096795;28;20222;-83
2021/12/03 00:41:56;;;;;;;19.05;16.83;;;;;;;1.52;83.78;97806.22;2104364;28;20267;-83
2021/12/03 00:42:59;;;;;;;18.58;16.85;;;;;;;1.59;83.83;97811.97;2102253;28;20226;-84
2021/12/03 00:44:01;;;;;;;19.60;17.35;;;;;;;1.54;83.82;97817.22;2095866;28;20222;-84
2021/12/03 00:45:03;;;;;;;18.10;16.40;;;;;;;1.51;83.81;97815.16;2104266;28;20727;-84
2021/12/03 00:46:08;;;;;;;18.48;16.65;;;;;;;1.47;84.96;97813.31;2095969;28;20702;-84
2021/12/03 00:47:09;;;;;;;18.10;16.40;;;;;;;1.53;84.58;97820.13;2095352;28;20226;-84
2021/12/03 00:48:10;;;;;;;18.13;16.60;;;;;;;1.49;84.12;97819.09;2095973;28;20241;-83
2021/12/03 00:49:14;;;;;;;18.88;17.20;;;;;;;1.55;84.32;97818.81;2095726;28;20229;-84
2021/12/03 00:50:19;;;;;;;18.20;16.40;;;;;;;1.52;84.62;97814.09;2088028;28;20223;-83
2021/12/03 00:51:23;;;;;;;19.00;17.08;;;;;;;1.52;85.05;97823.81;2095686;28;20230;-84
2021/12/03 00:52:24;;;;;;;18.77;16.75;;;;;;;1.45;85.74;97818.84;2087050;28;20334;-83
2021/12/03 00:53:26;;;;;;;19.23;16.73;;;;;;;1.43;86.39;97818.31;2088272;28;20229;-83
2021/12/03 00:54:27;;;;;;;18.00;16.55;;;;;;;1.41;86.27;97823.06;2096165;28;20483;-84
2021/12/03 00:55:31;;;;;;;17.83;16.33;;;;;;;1.52;85.80;97819.34;2087616;28;20222;-84
2021/12/03 00:56:34;;;;;;;18.45;16.75;;;;;;;1.52;85.98;97829.88;2087890;28;20231;-84
2021/12/03 00:57:37;;;;;;;17.30;16.00;;;;;;;1.46;84.35;97835.38;2086848;28;20725;-84
2021/12/03 00:58:38;;;;;;;18.48;16.73;;;;;;;1.45;84.95;97829.34;2087335;28;20280;-83
2021/12/03 00:59:40;;;;;;;18.00;16.20;;;;;;;1.38;85.31;97831.47;2087834;28;20226;-84
2021/12/03 01:00:41;;;;;;;18.48;16.65;;;;;;;1.33;85.91;97820.97;2087663;28;20226;-83
2021/12/03 01:01:44;;;;;;;18.00;16.50;;;;;;;1.38;86.00;97821.75;2087738;28;20269;-84
2021/12/03 01:02:47;;;;;;;18.73;16.92;;;;;;;1.31;86.17;97823.88;2087464;28;20745;-83
2021/12/03 01:03:51;;;;;;;19.00;17.20;;;;;;;1.36;85.93;97815.97;2087953;28;20218;-84
2021/12/03 01:04:53;;;;;;;18.48;16.77;;;;;;;1.35;86.04;97816.25;2095327;28;20229;-83
2021/12/03 01:05:55;;;;;;;18.00;16.23;;;;;;;1.29;86.57;97825.19;2087385;28;20237;-83
2021/12/03 01:06:56;;;;;;;18.15;16.60;;;;;;;1.24;87.41;97825.19;2087567;28;20226;-84
2021/12/03 01:07:58;;;;;;;18.60;16.53;;;;;;;1.29;87.12;97827.81;2087561;28;20235;-84
2021/12/03 01:08:58;;;;;;;18.50;16.58;;;;;;;1.25;87.39;97837.28;2079556;28;20307;-83
2021/12/03 01:10:02;;;;;;;18.97;17.10;;;;;;;1.28;87.38;97836.75;2079068;28;20240;-83
2021/12/03 01:11:05;;;;;;;18.85;16.95;;;;;;;1.25;87.55;97832.81;2079456;28;20242;-84
2021/12/03 01:12:07;;;;;;;19.38;17.42;;;;;;;1.24;88.19;97836.50;2087696;28;20681;-84
2021/12/03 01:13:08;;;;;;;20.00;17.42;;;;;;;1.30;88.32;97839.88;2095382;28;20328;-83
2021/12/03 01:14:10;;;;;;;19.63;17.13;;;;;;;1.27;88.52;97837.78;2087517;28;20222;-84
2021/12/03 01:15:14;;;;;;;19.23;17.35;;;;;;;1.25;89.10;97834.66;2085964;28;20876;-84
2021/12/03 01:16:17;;;;;;;18.80;17.02;;;;;;;1.22;89.59;97833.34;2088007;28;20225;-84
2021/12/03 01:17:18;;;;;;;18.73;17.02;;;;;;;1.22;88.98;97832.56;2087723;28;20215;-84
2021/12/03 01:18:23;;;;;;;18.40;16.77;;;;;;;1.26;89.18;97846.75;2087023;28;20657;-84
2021/12/03 01:19:24;;;;;;;18.63;16.30;;;;;;;1.27;89.33;97841.22;2095407;28;20233;-84
2021/12/03 01:20:26;;;;;;;18.73;16.97;;;;;;;1.24;89.62;97838.34;2087086;28;20238;-83
2021/12/03 01:21:28;;;;;;;18.67;16.90;;;;;;;1.23;89.84;97834.94;2095676;28;20260;-82
2021/12/03 01:22:29;;;;;;;18.80;17.00;;;;;;;1.24;89.97;97840.97;2095904;28;20228;-83
2021/12/03 01:23:34;;;;;;;18.00;16.50;;;;;;;1.17;90.33;97827.31;2096083;28;20218;-83
2021/12/03 01:24:36;;;;;;;18.55;16.95;;;;;;;1.17;90.79;97832.56;2096186;28;20226;-84
2021/12/03 01:25:39;;;;;;;18.95;16.20;;;;;;;1.11;90.92;97829.94;2094875;28;20226;-84
2021/12/03 01:26:43;;;;;;;20.13;17.13;;;;;;;1.11;90.62;97831.78;2095683;28;20304;-84
2021/12/03 01:27:46;;;;;;;18.10;16.50;;;;;;;1.08;91.36;97832.31;2095764;28;20604;-84
2021/12/03 01:28:47;;;;;;;18.30;16.80;;;;;;;1.10;91.74;97838.88;2095487;28;20863;-85
2021/12/03 01:29:49;;;;;;;18.95;17.27;;;;;;;1.08;91.32;97838.34;2087363;28;20219;-84
2021/12/03 01:30:50;;;;;;;18.55;16.85;;;;;;;1.17;90.79;97832.56;2096035;28;20221;-84
2021/12/03 01:31:54;;;;;;;18.93;17.20;;;;;;;1.17;91.11;97819.44;2095845;28;20280;-85
2021/12/03 01:32:56;;;;;;;19.15;17.20;;;;;;;1.14;91.22;97820.75;2087431;28;20496;-84
2021/12/03 01:33:58;;;;;;;21.35;16.98;;;;;;;1.11;91.70;97819.44;2095558;28;20252;-85
2021/12/03 01:34:58;;;;;;;18.90;17.10;;;;;;;1.13;92.33;97822.59;2095838;28;20214;-84
2021/12/03 01:36:01;;;;;;;19.50;17.87;;;;;;;1.09;92.13;97818.91;2087336;28;20218;-85
2021/12/03 01:37:02;;;;;;;18.15;16.55;;;;;;;1.13;92.85;97824.44;2087045;28;20223;-85
2021/12/03 01:38:04;;;;;;;18.50;16.50;;;;;;;1.11;92.51;97814.16;2087376;28;20288;-85
2021/12/03 01:39:12;;;;;;;18.60;17.10;;;;;;;1.10;92.59;97817.84;2095649;28;20241;-85
2021/12/03 01:40:17;;;;;;;18.77;16.98;;;;;;;1.05;92.84;97812.63;2086839;28;20276;-84
2021/12/03 01:41:18;;;;;;;17.63;16.10;;;;;;;1.05;93.85;97812.63;2079442;28;20276;-84
2021/12/03 01:42:21;;;;;;;17.65;16.23;;;;;;;1.08;94.24;97817.34;2078886;28;20272;-85
2021/12/03 01:43:25;;;;;;;19.45;17.55;;;;;;;1.05;94.25;97804.75;2086983;28;20274;-78
2021/12/03 01:44:27;;;;;;;18.60;16.75;;;;;;;1.03;94.44;97809.47;2095838;28;20759;-84
2021/12/03 01:45:33;;;;;;;18.60;16.75;;;;;;;1.01;95.10;97811.56;2084399;28;20228;-85
2021/12/03 01:46:35;;;;;;;18.80;17.02;;;;;;;0.99;95.45;97813.66;2086605;28;20223;-84
2021/12/03 01:47:36;;;;;;;19.13;17.23;;;;;;;0.93;95.98;97819.97;2077767;28;20243;-84
2021/12/03 01:48:39;;;;;;;18.63;16.83;;;;;;;0.93;96.17;97816.56;2086979;28;20713;-84
2021/12/03 01:49:41;;;;;;;18.77;16.98;;;;;;;0.93;96.82;97819.97;2086708;28;20592;-84
2021/12/03 01:50:43;;;;;;;18.85;17.05;;;;;;;0.90;97.17;97815.25;2086882;28;20696;-84
2021/12/03 01:51:46;;;;;;;18.88;17.17;;;;;;;0.89;97.47;97818.94;2087201;28;20229;-84
2021/12/03 01:52:50;;;;;;;18.70;16.95;;;;;;;1.03;96.96;97827.06;2087080;28;20222;-84
2021/12/03 01:53:52;;;;;;;18.40;16.70;;;;;;;1.01;95.69;97827.31;2079386;28;20219;-85
2021/12/03 01:54:53;;;;;;;18.50;16.90;;;;;;;0.94;96.48;97823.38;2087056;28;20222;-84
2021/12/03 01:56:06;;;;;;;18.73;16.90;;;;;;;0.92;96.86;97826.28;2095731;28;20688;-84
2021/12/03 01:57:07;;;;;;;18.05;16.42;;;;;;;0.98;97.12;97829.69;2095704;28;20468;-79
2021/12/03 01:58:10;;;;;;;18.47;16.80;;;;;;;0.95;97.13;97825.75;2087003;28;20227;-84
2021/12/03 01:59:14;;;;;;;19.08;17.20;;;;;;;0.92;97.39;97838.63;2079099;28;20230;-84
2021/12/03 02:00:18;;;;;;;18.08;16.60;;;;;;;0.86;98.21;97840.44;2079311;28;20311;-85
2021/12/03 02:01:22;;;;;;;17.48;16.02;;;;;;;0.84;98.71;97843.34;2087456;28;20684;-84
2021/12/03 02:02:23;;;;;;;18.77;16.98;;;;;;;0.78;98.99;97839.16;2086592;28;20626;-84
2021/12/03 02:03:29;;;;;;;18.20;16.63;;;;;;;0.77;99.66;97852.53;2086785;28;20301;-84
2021/12/03 02:04:30;;;;;;;17.60;15.90;;;;;;;0.71;100.00;97846.50;2087789;28;20226;-84
2021/12/03 02:05:35;;;;;;;17.57;15.97;;;;;;;0.74;99.85;97850.44;2087091;28;20222;-84
2021/12/03 02:06:39;;;;;;;18.15;16.35;;;;;;;0.77;99.81;97858.56;2079086;28;20523;-85
2021/12/03 02:07:40;;;;;;;18.33;16.52;;;;;;;0.73;99.92;97856.72;2078575;28;20231;-85
2021/12/03 02:08:43;;;;;;;17.67;15.88;;;;;;;0.75;100.00;97863.28;2086500;28;20634;-84
2021/12/03 02:09:43;;;;;;;17.10;15.90;;;;;;;0.75;100.00;97870.38;2078941;28;20292;-85
2021/12/03 02:10:46;;;;;;;19.43;17.30;;;;;;;0.73;100.00;97872.50;2087136;28;20223;-84
2021/12/03 02:11:47;;;;;;;17.88;16.38;;;;;;;0.73;100.00;97872.50;2094950;28;20218;-84
2021/12/03 02:12:50;;;;;;;18.43;16.70;;;;;;;0.71;100.00;97869.34;2095461;28;20279;-84
2021/12/03 02:13:54;;;;;;;18.75;16.90;;;;;;;0.70;100.00;97867.75;2086862;28;20621;-78
2021/12/03 02:14:55;;;;;;;18.23;16.50;;;;;;;0.71;100.00;97866.72;2086870;28;20337;-84
2021/12/03 02:15:57;;;;;;;18.53;16.73;;;;;;;0.69;100.00;97866.16;2086998;28;20235;-84
2021/12/03 02:16:58;;;;;;;18.35;16.48;;;;;;;0.70;100.00;97865.94;2094876;28;20339;-82
2021/12/03 02:18:00;;;;;;;17.77;16.17;;;;;;;0.68;100.00;97875.09;2087753;28;20315;-83
2021/12/03 02:19:01;;;;;;;17.63;16.05;;;;;;;0.67;100.00;97863.03;2086830;28;20222;-83
2021/12/03 02:20:05;;;;;;;17.88;16.20;;;;;;;0.77;100.00;97870.91;2078813;28;20701;-83
2021/12/03 02:21:09;;;;;;;18.25;16.60;;;;;;;0.76;100.00;97874.56;2078803;28;20277;-83
2021/12/03 02:22:12;;;;;;;19.02;17.13;;;;;;;0.72;100.00;97868.28;2087002;28;20307;-83
2021/12/03 02:23:14;;;;;;;17.45;15.90;;;;;;;0.67;100.00;97874.31;2095309;28;20226;-82
2021/12/03 02:24:21;;;;;;;17.42;15.82;;;;;;;0.66;100.00;97870.09;2087473;28;20272;-82
2021/12/03 02:25:24;;;;;;;18.40;16.77;;;;;;;0.63;100.00;97875.88;2086084;28;20231;-78
2021/12/03 02:26:25;;;;;;;17.80;16.17;;;;;;;0.63;100.00;97886.38;2078968;28;20227;-83
2021/12/03 02:27:28;;;;;;;18.73;16.92;;;;;;;0.65;100.00;97884.28;2078641;28;20243;-83
2021/12/03 02:28:33;;;;;;;18.17;16.50;;;;;;;0.64;100.00;97889.78;2078949;28;20219;-83
2021/12/03 02:29:35;;;;;;;18.13;16.42;;;;;;;0.64;100.00;97890.59;2087594;28;20218;-83
2021/12/03 02:30:35;;;;;;;18.50;16.52;;;;;;;0.62;100.00;97886.66;2087241;28;20671;-82
2021/12/03 02:31:37;;;;;;;18.20;16.33;;;;;;;0.63;100.00;97888.22;2086946;28;20226;-83
2021/12/03 02:32:38;;;;;;;17.95;16.13;;;;;;;0.63;100.00;97893.47;2086346;28;20223;-83
2021/12/03 02:33:40;;;;;;;17.83;16.33;;;;;;;0.64;100.00;97900.28;2086432;28;20226;-82
2021/12/03 02:34:43;;;;;;;18.98;17.00;;;;;;;0.65;100.00;97894.00;2078469;28;20231;-83
2021/12/03 02:35:46;;;;;;;18.25;16.83;;;;;;;0.66;100.00;97900.81;2078450;28;20219;-83
2021/12/03 02:36:48;;;;;;;18.08;16.58;;;;;;;0.62;100.00;97897.16;2078304;28;20299;-83
2021/12/03 02:37:51;;;;;;;17.90;16.40;;;;;;;0.63;100.00;97903.97;2078334;28;20310;-84
2021/12/03 02:38:53;;;;;;;18.67;16.88;;;;;;;0.62;100.00;97903.19;2079307;28;20227;-79
2021/12/03 02:39:54;;;;;;;18.88;17.10;;;;;;;0.61;100.00;97903.41;2086721;28;20745;-83
2021/12/03 02:41:00;;;;;;;18.20;16.67;;;;;;;0.64;100.00;97910.78;2086584;28;20637;-83
2021/12/03 02:42:03;;;;;;;19.17;17.42;;;;;;;0.57;100.00;97903.94;2087157;28;20222;-83
2021/12/03 02:43:04;;;;;;;18.45;16.83;;;;;;;0.59;100.00;97898.44;2087653;28;20238;-83
2021/12/03 02:44:06;;;;;;;18.52;16.83;;;;;;;0.56;100.00;97902.38;2087790;28;20582;-83
2021/12/03 02:45:08;;;;;;;18.80;16.90;;;;;;;0.54;100.00;97899.22;2086054;28;20589;-82
2021/12/03 02:46:10;;;;;;;18.23;16.73;;;;;;;0.61;100.00;97916.53;2077846;28;20227;-83
2021/12/03 02:47:11;;;;;;;18.55;16.85;;;;;;;0.64;100.00;97913.41;2086768;28;20284;-84
2021/12/03 02:48:14;;;;;;;18.50;16.95;;;;;;;0.62;100.00;97918.16;2086713;28;20226;-84
2021/12/03 02:49:15;;;;;;;19.08;17.25;;;;;;;0.57;100.00;97914.44;2078650;28;20730;-85
2021/12/03 02:50:18;;;;;;;18.25;16.58;;;;;;;0.60;100.00;97920.22;2086686;28;20235;-83
2021/12/03 02:51:19;;;;;;;18.60;16.67;;;;;;;0.55;100.00;97915.75;2086388;28;20340;-83
2021/12/03 02:52:22;;;;;;;19.17;17.17;;;;;;;0.53;100.00;97920.50;2087068;28;20231;-83
2021/12/03 02:53:23;;;;;;;17.80;16.15;;;;;;;0.56;100.00;97923.38;2086301;28;20308;-82
2021/12/03 02:54:25;;;;;;;17.77;16.27;;;;;;;0.62;100.00;97918.16;2086767;28;20222;-83
2021/12/03 02:55:27;;;;;;;18.20;16.60;;;;;;;0.68;100.00;97922.34;2086664;28;22441;-83
2021/12/03 02:56:29;;;;;;;17.45;15.80;;;;;;;0.66;100.00;97925.22;2086818;28;20223;-83
2021/12/03 02:57:29;;;;;;;18.38;16.65;;;;;;;0.59;100.00;97919.44;2094915;28;20319;-82
2021/12/03 02:58:31;;;;;;;17.70;16.20;;;;;;;0.54;100.00;97920.22;2086496;28;20226;-83
2021/12/03 02:59:33;;;;;;;18.85;16.95;;;;;;;0.52;100.00;97927.56;2086976;28;20219;-83
2021/12/03 03:00:36;;;;;;;18.08;16.38;;;;;;;0.48;100.00;97918.63;2087710;28;20222;-83
2021/12/03 03:01:40;;;;;;;18.33;16.77;;;;;;;0.49;100.00;97914.16;2085969;28;20268;-76
2021/12/03 03:02:44;;;;;;;18.52;16.70;;;;;;;0.53;100.00;97930.97;2086534;28;20232;-83
2021/12/03 03:03:47;;;;;;;18.65;16.80;;;;;;;0.51;100.00;97917.31;2087169;28;20222;-83
2021/12/03 03:04:49;;;;;;;18.58;16.65;;;;;;;0.61;100.00;97927.03;2087254;28;20226;-83
2021/12/03 03:05:54;;;;;;;18.35;16.92;;;;;;;0.61;100.00;97927.03;2095116;28;20218;-83
2021/12/03 03:06:55;;;;;;;17.20;15.93;;;;;;;0.59;100.00;97926.50;2086370;28;20300;-83
2021/12/03 03:07:58;;;;;;;17.93;16.33;;;;;;;0.57;100.00;97932.81;2086979;28;20234;-83
2021/12/03 03:09:03;;;;;;;20.92;16.83;;;;;;;0.57;100.00;97932.81;2087335;28;20218;-84
2021/12/03 03:10:09;;;;;;;18.33;16.73;;;;;;;0.54;100.00;97929.94;2086567;28;20217;-83
2021/12/03 03:11:11;;;;;;;17.17;15.73;;;;;;;0.53;100.00;97936.22;2086408;28;20234;-83
2021/12/03 03:12:14;;;;;;;18.52;16.60;;;;;;;0.50;100.00;97934.88;2095093;28;20265;-83
2021/12/03 03:13:15;;;;;;;18.52;16.75;;;;;;;0.47;100.00;97943.28;2086647;28;20331;-84
2021/12/03 03:14:17;;;;;;;18.63;16.90;;;;;;;0.54;100.00;97949.09;2094677;28;20222;-84
2021/12/03 03:15:18;;;;;;;17.88;16.27;;;;;;;0.49;100.00;97943.81;2086615;28;20236;-84
2021/12/03 03:16:21;;;;;;;17.40;15.77;;;;;;;0.52;100.00;97945.94;2086837;28;20739;-83
2021/12/03 03:17:23;;;;;;;17.38;15.75;;;;;;;0.54;100.00;97949.09;2086047;28;20696;-82
2021/12/03 03:18:27;;;;;;;20.42;17.17;;;;;;;0.48;100.00;97957.97;2086010;28;20233;-83
2021/12/03 03:19:27;;;;;;;18.35;16.50;;;;;;;0.48;100.00;97957.97;2094229;28;20346;-84
2021/12/03 03:20:29;;;;;;;17.43;16.13;;;;;;;0.40;100.00;97947.97;2086722;28;20245;-83
2021/12/03 03:21:30;;;;;;;17.88;16.17;;;;;;;0.39;100.00;97950.88;2086612;28;20238;-84
2021/12/03 03:22:32;;;;;;;17.17;15.85;;;;;;;0.35;100.00;97953.22;2078177;28;20326;-84
2021/12/03 03:23:38;;;;;;;17.60;16.05;;;;;;;0.46;100.00;97956.66;2087332;28;20222;-84
2021/12/03 03:24:39;;;;;;;17.88;16.35;;;;;;;0.47;100.00;97951.16;2093891;28;20218;-84
2021/12/03 03:25:42;;;;;;;17.17;15.70;;;;;;;0.42;100.00;97953.75;2095307;28;20224;-83
2021/12/03 03:26:45;;;;;;;18.38;16.60;;;;;;;0.40;100.00;97958.47;2086493;28;20310;-83
2021/12/03 03:27:47;;;;;;;17.45;16.00;;;;;;;0.33;100.00;97957.91;2078606;28;20759;-84
2021/12/03 03:28:48;;;;;;;17.63;15.48;;;;;;;0.34;100.00;97961.31;2086698;28;20302;-84
2021/12/03 03:29:54;;;;;;;17.53;15.80;;;;;;;0.36;100.00;97959.25;2094660;28;20226;-84
2021/12/03 03:30:56;;;;;;;17.15;15.88;;;;;;;0.38;100.00;97959.78;2094279;28;20271;-84
2021/12/03 03:31:59;;;;;;;17.15;15.85;;;;;;;0.43;100.00;97978.16;2094258;28;20221;-83
2021/12/03 03:33:00;;;;;;;18.63;16.92;;;;;;;0.37;100.00;97964.25;2086394;28;20685;-84
2021/12/03 03:34:03;;;;;;;17.23;15.73;;;;;;;0.40;100.00;97962.94;2087361;28;20222;-83
2021/12/03 03:35:04;;;;;;;17.83;16.42;;;;;;;0.42;100.00;97974.75;2086365;28;20226;-84
2021/12/03 03:36:06;;;;;;;18.15;16.70;;;;;;;0.39;100.00;97972.63;2078201;28;20223;-84
2021/12/03 03:37:08;;;;;;;17.90;16.27;;;;;;;0.35;100.00;97968.97;2086300;28;20260;-82
2021/12/03 03:38:10;;;;;;;18.63;16.70;;;;;;;0.34;100.00;97977.84;2086231;28;20226;-83
2021/12/03 03:39:13;;;;;;;17.75;16.10;;;;;;;0.31;100.00;97981.00;2086612;28;20230;-83
2021/12/03 03:40:15;;;;;;;18.50;16.77;;;;;;;0.32;100.00;97977.31;2086345;28;20306;-83
2021/12/03 03:41:16;;;;;;;17.65;16.13;;;;;;;0.33;100.00;97981.53;2086545;28;20234;-83
2021/12/03 03:42:18;;;;;;;17.30;15.90;;;;;;;0.32;100.00;97982.56;2086416;28;20215;-84
2021/12/03 03:43:20;;;;;;;17.73;16.23;;;;;;;0.31;100.00;97986.25;2077517;28;20235;-84
2021/12/03 03:44:23;;;;;;;18.70;16.90;;;;;;;0.28;100.00;97977.06;2086454;28;20609;-83
2021/12/03 03:45:26;;;;;;;17.25;15.77;;;;;;;0.23;100.00;97974.41;2086074;28;20227;-83
2021/12/03 03:46:27;;;;;;;18.08;16.48;;;;;;;0.25;100.00;97966.28;2087144;28;20284;-83
2021/12/03 03:47:29;;;;;;;18.58;16.88;;;;;;;0.23;100.00;97971.78;2086277;28;20226;-83
2021/12/03 03:48:30;;;;;;;18.75;17.15;;;;;;;0.21;100.00;97968.63;2086356;28;20739;-83
2021/12/03 03:49:33;;;;;;;18.70;17.20;;;;;;;0.23;100.00;97973.63;2086282;28;20662;-84
2021/12/03 03:50:34;;;;;;;17.75;16.27;;;;;;;0.24;100.00;97975.19;2078256;28;20262;-83
2021/12/03 03:51:37;;;;;;;19.70;18.10;;;;;;;0.24;100.00;97983.06;2077568;28;20238;-83
2021/12/03 03:52:39;;;;;;;18.20;16.52;;;;;;;0.27;100.00;97982.56;2086075;28;20234;-83
2021/12/03 03:53:41;;;;;;;18.10;16.50;;;;;;;0.21;100.00;97980.97;2086256;28;20218;-84
2021/12/03 03:54:43;;;;;;;17.90;16.40;;;;;;;0.18;100.00;97984.09;2086336;28;20323;-81
2021/12/03 03:55:45;;;;;;;19.38;16.70;;;;;;;0.16;100.00;97984.34;2086516;28;20636;-84
2021/12/03 03:56:47;;;;;;;17.83;16.38;;;;;;;0.12;100.00;97982.50;2086230;28;20234;-83
2021/12/03 03:57:52;;;;;;;17.83;16.33;;;;;;;0.17;100.00;97985.13;2094793;28;20222;-83
2021/12/03 03:58:56;;;;;;;17.90;16.33;;;;;;;0.17;100.00;97985.13;2085355;28;20223;-82
2021/12/03 03:59:57;;;;;;;20.45;18.88;;;;;;;0.15;100.00;97985.38;2086411;28;20219;-83
2021/12/03 04:00:59;;;;;;;20.23;18.40;;;;;;;0.17;100.00;97993.78;2086473;28;20645;-82
2021/12/03 04:02:00;;;;;;;18.00;16.63;;;;;;;0.18;100.00;97984.88;2086225;28;20241;-83
2021/12/03 04:03:02;;;;;;;19.27;17.48;;;;;;;0.31;100.00;98002.00;2086375;28;20222;-83
2021/12/03 04:04:07;;;;;;;17.52;15.93;;;;;;;0.25;100.00;98001.16;2087058;28;20230;-83
2021/12/03 04:05:10;;;;;;;19.08;16.98;;;;;;;0.19;100.00;97999.56;2085965;28;20313;-83
2021/12/03 04:06:12;;;;;;;17.92;16.42;;;;;;;0.13;100.00;98002.41;2078308;28;20230;-83
2021/12/03 04:07:13;;;;;;;18.38;16.50;;;;;;;0.15;100.00;98008.19;2077950;28;20654;-82
2021/12/03 04:08:15;;;;;;;17.77;16.03;;;;;;;0.17;100.00;98017.38;2086444;28;20222;-83
2021/12/03 04:09:16;;;;;;;18.00;16.30;;;;;;;0.18;100.00;98021.59;2094370;28;20354;-83
2021/12/03 04:10:19;;;;;;;17.87;16.47;;;;;;;0.15;100.00;98013.44;2094830;28;20238;-83
2021/12/03 04:11:25;;;;;;;18.60;16.83;;;;;;;0.11;100.00;98012.38;2087946;28;20637;-83
2021/12/03 04:12:27;;;;;;;18.05;16.42;;;;;;;0.14;100.00;98011.88;2087652;28;20696;-82
2021/12/03 04:13:29;;;;;;;16.73;15.40;;;;;;;0.15;100.00;98019.47;2087893;28;20218;-82
2021/12/03 04:14:30;;;;;;;17.67;16.13;;;;;;;0.12;100.00;98019.19;2079828;28;20297;-82
2021/12/03 04:15:32;;;;;;;17.90;16.20;;;;;;;0.13;100.00;98032.06;2088204;28;20230;-82
2021/12/03 04:16:33;;;;;;;17.13;15.73;;;;;;;0.09;100.00;98036.25;2096264;28;20709;-83
2021/12/03 04:17:35;;;;;;;17.53;16.10;;;;;;;0.09;100.00;98030.19;2096170;28;20245;-82
2021/12/03 04:18:36;;;;;;;18.13;16.50;;;;;;;0.14;100.00;98038.88;2088608;28;20219;-83
2021/12/03 04:19:37;;;;;;;19.23;17.55;;;;;;;0.12;100.00;98034.94;2095664;28;20229;-81
2021/12/03 04:20:39;;;;;;;19.55;16.67;;;;;;;0.10;100.00;98037.81;2087669;28;20238;-82
2021/12/03 04:21:40;;;;;;;18.50;16.67;;;;;;;0.07;100.00;98029.66;2079203;28;20215;-82
2021/12/03 04:22:43;;;;;;;18.70;17.07;;;;;;;0.03;100.00;98041.69;2087803;28;20222;-82
2021/12/03 04:23:44;;;;;;;18.13;16.48;;;;;;;0.05;100.00;98035.16;2096142;28;20226;-82
2021/12/03 04:24:45;;;;;;;18.27;16.57;;;;;;;0.06;100.00;98051.66;2087784;28;20673;-83
2021/12/03 04:25:48;;;;;;;18.08;16.38;;;;;;;0.04;100.00;98053.75;2087709;28;20649;-83
2021/12/03 04:26:50;;;;;;;18.40;16.80;;;;;;;0.07;100.00;98053.25;2088524;28;20565;-83
2021/12/03 04:27:51;;;;;;;17.80;16.40;;;;;;;0.05;100.00;98047.47;2088466;28;20244;-83
2021/12/03 04:28:53;;;;;;;18.10;16.50;;;;;;;0.08;100.00;98044.34;2095472;28;20220;-77
2021/12/03 04:29:53;;;;;;;18.02;16.52;;;;;;;0.07;100.00;98048.00;2095989;28;20977;-83
2021/12/03 04:30:55;;;;;;;17.83;16.10;;;;;;;0.14;100.00;98059.06;2087667;28;20598;-82
2021/12/03 04:31:56;;;;;;;18.05;16.63;;;;;;;0.10;100.00;98056.16;2087153;28;20615;-82
2021/12/03 04:33:00;;;;;;;18.10;16.58;;;;;;;0.10;100.00;98058.00;2087874;28;20231;-83
2021/12/03 04:34:02;;;;;;;18.23;16.73;;;;;;;0.04;100.00;98054.56;2088570;28;20222;-83
2021/12/03 04:35:04;;;;;;;17.90;16.38;;;;;;;0.08;100.00;98066.09;2088415;28;20276;-83
2021/12/03 04:36:06;;;;;;;17.38;16.08;;;;;;;0.05;100.00;98061.38;2087669;28;20615;-83
2021/12/03 04:37:07;;;;;;;17.70;16.40;;;;;;;0.04;100.00;98059.78;2078936;28;20687;-80
2021/12/03 04:38:09;;;;;;;18.33;16.83;;;;;;;0.02;100.00;98061.88;2087619;28;20222;-82
2021/12/03 04:39:13;;;;;;;17.75;16.35;;;;;;;0.07;100.00;98072.38;2087463;28;20222;-83
2021/12/03 04:40:17;;;;;;;18.77;17.17;;;;;;;0.06;100.00;98059.53;2087621;28;20305;-82
2021/12/03 04:41:20;;;;;;;17.65;16.33;;;;;;;0.03;100.00;98054.81;2087354;28;20302;-83
2021/12/03 04:42:22;;;;;;;18.90;17.27;;;;;;;0.01;100.00;98059.53;2079377;28;20228;-84
2021/12/03 04:43:23;;;;;;;18.33;16.85;;;;;;;0.01;100.00;98065.56;2087070;28;20284;-82
2021/12/03 04:44:24;;;;;;;18.02;16.52;;;;;;;0.10;100.00;98081.59;2087702;28;20247;-83
2021/12/03 04:45:28;;;;;;;18.57;17.07;;;;;;;0.12;100.00;98069.03;2079433;28;20242;-83
2021/12/03 04:46:30;;;;;;;19.05;17.50;;;;;;;0.07;100.00;98068.97;2087309;28;20310;-84
2021/12/03 04:47:32;;;;;;;18.40;16.90;;;;;;;0.06;100.00;98070.03;2087667;28;20253;-83
2021/12/03 04:48:33;;;;;;;18.83;17.23;;;;;;;0.10;100.00;98063.25;2087695;28;20226;-83